sensor_id;sensor_type;location;lat;lon;timestamp;P1;durP1;ratioP1;P2;durP2;ratioP2
15287;SDS011;7745;48.708;9.026;2022-09-03T00:02:27;3.27;;;1.70;;
15287;SDS011;7745;48.708;9.026;2022-09-03T00:05:03;2.53;;;1.80;;
15287;SDS011;7745;48.708;9.026;2022-09-03T00:07:35;4.33;;;1.90;;
15287;SDS011;7745;48.708;9.026;2022-09-03T00:10:10;2.83;;;1.80;;
15287;SDS011;7745;48.708;9.026;2022-09-03T00:12:41;2.73;;;1.93;;
15287;SDS011;7745;48.708;9.026;2022-09-03T00:15:10;3.40;;;1.70;;
15287;SDS011;7745;48.708;9.026;2022-09-03T00:17:41;2.03;;;1.43;;
15287;SDS011;7745;48.708;9.026;2022-09-03T00:20:14;5.13;;;1.47;;
15287;SDS011;7745;48.708;9.026;2022-09-03T00:22:45;2.77;;;1.70;;
15287;SDS011;7745;48.708;9.026;2022-09-03T00:25:16;4.23;;;1.80;;
15287;SDS011;7745;48.708;9.026;2022-09-03T00:27:47;4.37;;;1.47;;
15287;SDS011;7745;48.708;9.026;2022-09-03T00:30:19;4.93;;;1.60;;
15287;SDS011;7745;48.708;9.026;2022-09-03T00:32:48;3.67;;;1.60;;
15287;SDS011;7745;48.708;9.026;2022-09-03T00:35:22;2.50;;;1.47;;
15287;SDS011;7745;48.708;9.026;2022-09-03T00:37:54;2.97;;;1.40;;
15287;SDS011;7745;48.708;9.026;2022-09-03T00:43:20;3.07;;;1.70;;
15287;SDS011;7745;48.708;9.026;2022-09-03T00:45:59;3.10;;;1.50;;
15287;SDS011;7745;48.708;9.026;2022-09-03T00:48:36;3.20;;;1.70;;
15287;SDS011;7745;48.708;9.026;2022-09-03T00:51:18;3.37;;;1.50;;
15287;SDS011;7745;48.708;9.026;2022-09-03T00:53:57;3.67;;;1.70;;
15287;SDS011;7745;48.708;9.026;2022-09-03T00:56:32;2.27;;;1.47;;
15287;SDS011;7745;48.708;9.026;2022-09-03T00:59:10;2.00;;;1.70;;
15287;SDS011;7745;48.708;9.026;2022-09-03T01:01:49;1.93;;;1.60;;
15287;SDS011;7745;48.708;9.026;2022-09-03T01:04:34;2.53;;;1.70;;
15287;SDS011;7745;48.708;9.026;2022-09-03T01:07:12;2.53;;;1.47;;
15287;SDS011;7745;48.708;9.026;2022-09-03T01:09:52;3.73;;;1.63;;
15287;SDS011;7745;48.708;9.026;2022-09-03T01:12:26;2.10;;;1.40;;
15287;SDS011;7745;48.708;9.026;2022-09-03T01:15:01;2.00;;;1.33;;
15287;SDS011;7745;48.708;9.026;2022-09-03T01:17:36;2.77;;;1.27;;
15287;SDS011;7745;48.708;9.026;2022-09-03T01:20:17;1.97;;;1.43;;
15287;SDS011;7745;48.708;9.026;2022-09-03T01:23:00;1.50;;;1.40;;
15287;SDS011;7745;48.708;9.026;2022-09-03T01:25:50;2.60;;;1.60;;
15287;SDS011;7745;48.708;9.026;2022-09-03T01:28:28;2.43;;;1.37;;
15287;SDS011;7745;48.708;9.026;2022-09-03T01:31:11;1.73;;;1.57;;
15287;SDS011;7745;48.708;9.026;2022-09-03T01:33:49;1.93;;;1.53;;
15287;SDS011;7745;48.708;9.026;2022-09-03T01:36:23;1.77;;;1.40;;
15287;SDS011;7745;48.708;9.026;2022-09-03T01:38:58;2.17;;;1.40;;
15287;SDS011;7745;48.708;9.026;2022-09-03T01:41:30;3.63;;;1.60;;
15287;SDS011;7745;48.708;9.026;2022-09-03T01:44:25;3.40;;;1.70;;
15287;SDS011;7745;48.708;9.026;2022-09-03T01:46:59;1.97;;;1.60;;
15287;SDS011;7745;48.708;9.026;2022-09-03T01:49:37;3.73;;;1.57;;
15287;SDS011;7745;48.708;9.026;2022-09-03T01:52:12;3.03;;;1.70;;
15287;SDS011;7745;48.708;9.026;2022-09-03T01:54:46;2.33;;;1.60;;
15287;SDS011;7745;48.708;9.026;2022-09-03T01:57:37;2.80;;;1.60;;
15287;SDS011;7745;48.708;9.026;2022-09-03T02:00:11;4.70;;;1.50;;
15287;SDS011;7745;48.708;9.026;2022-09-03T02:02:40;2.20;;;1.40;;
15287;SDS011;7745;48.708;9.026;2022-09-03T02:05:12;3.30;;;1.47;;
15287;SDS011;7745;48.708;9.026;2022-09-03T02:07:41;2.53;;;1.60;;
15287;SDS011;7745;48.708;9.026;2022-09-03T02:10:10;2.43;;;1.80;;
15287;SDS011;7745;48.708;9.026;2022-09-03T02:12:40;5.07;;;1.63;;
15287;SDS011;7745;48.708;9.026;2022-09-03T02:15:13;2.90;;;1.57;;
15287;SDS011;7745;48.708;9.026;2022-09-03T02:17:42;4.47;;;1.80;;
15287;SDS011;7745;48.708;9.026;2022-09-03T02:20:12;3.47;;;1.67;;
15287;SDS011;7745;48.708;9.026;2022-09-03T02:22:46;5.20;;;1.70;;
15287;SDS011;7745;48.708;9.026;2022-09-03T02:25:14;2.87;;;1.67;;
15287;SDS011;7745;48.708;9.026;2022-09-03T02:27:41;5.73;;;1.60;;
15287;SDS011;7745;48.708;9.026;2022-09-03T02:30:09;2.03;;;1.70;;
15287;SDS011;7745;48.708;9.026;2022-09-03T02:32:38;2.20;;;1.40;;
15287;SDS011;7745;48.708;9.026;2022-09-03T02:35:05;2.53;;;1.80;;
15287;SDS011;7745;48.708;9.026;2022-09-03T02:37:33;2.50;;;1.90;;
15287;SDS011;7745;48.708;9.026;2022-09-03T02:40:00;3.93;;;1.80;;
15287;SDS011;7745;48.708;9.026;2022-09-03T02:42:30;2.57;;;1.77;;
15287;SDS011;7745;48.708;9.026;2022-09-03T02:44:59;3.07;;;1.90;;
15287;SDS011;7745;48.708;9.026;2022-09-03T02:47:32;2.10;;;1.53;;
15287;SDS011;7745;48.708;9.026;2022-09-03T02:50:03;2.30;;;1.63;;
15287;SDS011;7745;48.708;9.026;2022-09-03T02:52:30;2.57;;;1.80;;
15287;SDS011;7745;48.708;9.026;2022-09-03T02:54:57;2.13;;;1.60;;
15287;SDS011;7745;48.708;9.026;2022-09-03T02:57:24;2.90;;;1.77;;
15287;SDS011;7745;48.708;9.026;2022-09-03T02:59:51;3.40;;;1.90;;
15287;SDS011;7745;48.708;9.026;2022-09-03T03:02:18;2.67;;;1.77;;
15287;SDS011;7745;48.708;9.026;2022-09-03T03:04:44;2.67;;;1.67;;
15287;SDS011;7745;48.708;9.026;2022-09-03T03:07:13;2.27;;;1.77;;
15287;SDS011;7745;48.708;9.026;2022-09-03T03:09:39;3.80;;;2.10;;
15287;SDS011;7745;48.708;9.026;2022-09-03T03:12:06;3.23;;;2.10;;
15287;SDS011;7745;48.708;9.026;2022-09-03T03:14:34;2.60;;;2.07;;
15287;SDS011;7745;48.708;9.026;2022-09-03T03:17:01;2.47;;;2.00;;
15287;SDS011;7745;48.708;9.026;2022-09-03T03:19:27;2.97;;;2.20;;
15287;SDS011;7745;48.708;9.026;2022-09-03T03:21:54;4.43;;;2.20;;
15287;SDS011;7745;48.708;9.026;2022-09-03T03:24:22;3.43;;;2.23;;
15287;SDS011;7745;48.708;9.026;2022-09-03T03:26:49;3.50;;;2.07;;
15287;SDS011;7745;48.708;9.026;2022-09-03T03:29:16;3.07;;;2.60;;
15287;SDS011;7745;48.708;9.026;2022-09-03T03:31:43;3.00;;;2.63;;
15287;SDS011;7745;48.708;9.026;2022-09-03T03:34:10;2.50;;;2.27;;
15287;SDS011;7745;48.708;9.026;2022-09-03T03:36:37;4.40;;;2.20;;
15287;SDS011;7745;48.708;9.026;2022-09-03T03:39:03;3.27;;;2.33;;
15287;SDS011;7745;48.708;9.026;2022-09-03T03:41:32;2.57;;;1.73;;
15287;SDS011;7745;48.708;9.026;2022-09-03T03:44:02;2.60;;;1.80;;
15287;SDS011;7745;48.708;9.026;2022-09-03T03:46:31;3.10;;;1.90;;
15287;SDS011;7745;48.708;9.026;2022-09-03T03:48:59;3.10;;;2.20;;
15287;SDS011;7745;48.708;9.026;2022-09-03T03:51:26;5.40;;;2.00;;
15287;SDS011;7745;48.708;9.026;2022-09-03T03:53:54;4.17;;;1.83;;
15287;SDS011;7745;48.708;9.026;2022-09-03T03:56:22;4.90;;;2.30;;
15287;SDS011;7745;48.708;9.026;2022-09-03T03:58:51;3.33;;;2.30;;
15287;SDS011;7745;48.708;9.026;2022-09-03T04:01:20;3.27;;;2.13;;
15287;SDS011;7745;48.708;9.026;2022-09-03T04:03:48;3.73;;;2.07;;
15287;SDS011;7745;48.708;9.026;2022-09-03T04:06:16;3.43;;;1.93;;
15287;SDS011;7745;48.708;9.026;2022-09-03T04:08:45;4.13;;;2.20;;
15287;SDS011;7745;48.708;9.026;2022-09-03T04:11:14;5.30;;;2.10;;
15287;SDS011;7745;48.708;9.026;2022-09-03T04:13:43;3.77;;;2.27;;
15287;SDS011;7745;48.708;9.026;2022-09-03T04:16:12;3.37;;;2.43;;
15287;SDS011;7745;48.708;9.026;2022-09-03T04:18:40;2.57;;;2.37;;
15287;SDS011;7745;48.708;9.026;2022-09-03T04:21:08;2.57;;;2.37;;
15287;SDS011;7745;48.708;9.026;2022-09-03T04:23:37;3.00;;;2.70;;
15287;SDS011;7745;48.708;9.026;2022-09-03T04:26:05;2.77;;;2.50;;
15287;SDS011;7745;48.708;9.026;2022-09-03T04:28:33;3.20;;;3.00;;
15287;SDS011;7745;48.708;9.026;2022-09-03T04:31:01;3.87;;;2.87;;
15287;SDS011;7745;48.708;9.026;2022-09-03T04:33:33;4.87;;;3.27;;
15287;SDS011;7745;48.708;9.026;2022-09-03T04:36:05;5.70;;;3.20;;
15287;SDS011;7745;48.708;9.026;2022-09-03T04:38:33;4.33;;;3.47;;
15287;SDS011;7745;48.708;9.026;2022-09-03T04:41:00;3.57;;;3.23;;
15287;SDS011;7745;48.708;9.026;2022-09-03T04:43:27;3.53;;;3.23;;
15287;SDS011;7745;48.708;9.026;2022-09-03T04:45:55;3.97;;;3.67;;
15287;SDS011;7745;48.708;9.026;2022-09-03T04:48:23;3.77;;;3.40;;
15287;SDS011;7745;48.708;9.026;2022-09-03T04:50:51;4.43;;;3.57;;
15287;SDS011;7745;48.708;9.026;2022-09-03T04:53:19;3.97;;;3.67;;
15287;SDS011;7745;48.708;9.026;2022-09-03T04:55:46;6.33;;;4.20;;
15287;SDS011;7745;48.708;9.026;2022-09-03T04:58:13;3.73;;;3.30;;
15287;SDS011;7745;48.708;9.026;2022-09-03T05:00:40;6.03;;;3.40;;
15287;SDS011;7745;48.708;9.026;2022-09-03T05:03:07;5.03;;;4.00;;
15287;SDS011;7745;48.708;9.026;2022-09-03T05:05:34;4.90;;;3.47;;
15287;SDS011;7745;48.708;9.026;2022-09-03T05:08:02;3.70;;;3.40;;
15287;SDS011;7745;48.708;9.026;2022-09-03T05:10:30;4.37;;;3.77;;
15287;SDS011;7745;48.708;9.026;2022-09-03T05:12:59;4.10;;;3.73;;
15287;SDS011;7745;48.708;9.026;2022-09-03T05:15:27;4.70;;;3.73;;
15287;SDS011;7745;48.708;9.026;2022-09-03T05:17:55;4.63;;;4.10;;
15287;SDS011;7745;48.708;9.026;2022-09-03T05:20:23;5.27;;;4.23;;
15287;SDS011;7745;48.708;9.026;2022-09-03T05:22:50;4.37;;;3.97;;
15287;SDS011;7745;48.708;9.026;2022-09-03T05:25:18;3.70;;;3.40;;
15287;SDS011;7745;48.708;9.026;2022-09-03T05:27:45;4.83;;;3.93;;
15287;SDS011;7745;48.708;9.026;2022-09-03T05:30:12;5.50;;;4.00;;
15287;SDS011;7745;48.708;9.026;2022-09-03T05:32:39;5.77;;;4.00;;
15287;SDS011;7745;48.708;9.026;2022-09-03T05:35:07;5.07;;;3.80;;
15287;SDS011;7745;48.708;9.026;2022-09-03T05:37:35;4.03;;;3.60;;
15287;SDS011;7745;48.708;9.026;2022-09-03T05:40:04;4.47;;;3.50;;
15287;SDS011;7745;48.708;9.026;2022-09-03T05:42:36;5.53;;;3.77;;
15287;SDS011;7745;48.708;9.026;2022-09-03T05:45:05;4.37;;;3.87;;
15287;SDS011;7745;48.708;9.026;2022-09-03T05:47:34;4.13;;;3.83;;
15287;SDS011;7745;48.708;9.026;2022-09-03T05:50:03;4.50;;;4.10;;
15287;SDS011;7745;48.708;9.026;2022-09-03T05:52:31;4.90;;;3.90;;
15287;SDS011;7745;48.708;9.026;2022-09-03T05:54:58;5.17;;;4.10;;
15287;SDS011;7745;48.708;9.026;2022-09-03T05:57:25;4.50;;;4.10;;
15287;SDS011;7745;48.708;9.026;2022-09-03T05:59:55;5.43;;;4.17;;
15287;SDS011;7745;48.708;9.026;2022-09-03T06:02:22;4.87;;;4.43;;
15287;SDS011;7745;48.708;9.026;2022-09-03T06:04:48;5.00;;;4.20;;
15287;SDS011;7745;48.708;9.026;2022-09-03T06:07:15;6.50;;;4.27;;
15287;SDS011;7745;48.708;9.026;2022-09-03T06:09:42;5.00;;;4.07;;
15287;SDS011;7745;48.708;9.026;2022-09-03T06:12:09;5.37;;;4.60;;
15287;SDS011;7745;48.708;9.026;2022-09-03T06:14:36;5.93;;;4.40;;
15287;SDS011;7745;48.708;9.026;2022-09-03T06:17:04;4.13;;;3.73;;
15287;SDS011;7745;48.708;9.026;2022-09-03T06:19:35;4.30;;;3.90;;
15287;SDS011;7745;48.708;9.026;2022-09-03T06:22:02;6.17;;;3.87;;
15287;SDS011;7745;48.708;9.026;2022-09-03T06:24:29;5.30;;;4.10;;
15287;SDS011;7745;48.708;9.026;2022-09-03T06:26:56;5.40;;;4.03;;
15287;SDS011;7745;48.708;9.026;2022-09-03T06:29:23;5.37;;;3.53;;
15287;SDS011;7745;48.708;9.026;2022-09-03T06:31:50;6.57;;;3.70;;
15287;SDS011;7745;48.708;9.026;2022-09-03T06:34:19;4.40;;;3.80;;
15287;SDS011;7745;48.708;9.026;2022-09-03T06:36:46;5.37;;;3.70;;
15287;SDS011;7745;48.708;9.026;2022-09-03T06:39:13;6.63;;;3.97;;
15287;SDS011;7745;48.708;9.026;2022-09-03T06:41:40;6.23;;;4.17;;
15287;SDS011;7745;48.708;9.026;2022-09-03T06:44:07;8.97;;;4.00;;
15287;SDS011;7745;48.708;9.026;2022-09-03T06:46:37;4.70;;;4.20;;
15287;SDS011;7745;48.708;9.026;2022-09-03T06:49:06;5.47;;;3.63;;
15287;SDS011;7745;48.708;9.026;2022-09-03T06:51:35;4.77;;;4.27;;
15287;SDS011;7745;48.708;9.026;2022-09-03T06:54:03;4.23;;;3.93;;
15287;SDS011;7745;48.708;9.026;2022-09-03T06:56:32;6.03;;;4.33;;
15287;SDS011;7745;48.708;9.026;2022-09-03T06:59:03;4.93;;;4.43;;
15287;SDS011;7745;48.708;9.026;2022-09-03T07:01:32;4.27;;;3.87;;
15287;SDS011;7745;48.708;9.026;2022-09-03T07:04:00;7.53;;;4.23;;
15287;SDS011;7745;48.708;9.026;2022-09-03T07:06:29;19.10;;;4.57;;
15287;SDS011;7745;48.708;9.026;2022-09-03T07:09:01;6.43;;;3.80;;
15287;SDS011;7745;48.708;9.026;2022-09-03T07:11:30;5.77;;;3.70;;
15287;SDS011;7745;48.708;9.026;2022-09-03T07:13:58;5.73;;;3.50;;
15287;SDS011;7745;48.708;9.026;2022-09-03T07:16:25;4.60;;;3.80;;
15287;SDS011;7745;48.708;9.026;2022-09-03T07:18:54;4.40;;;4.10;;
15287;SDS011;7745;48.708;9.026;2022-09-03T07:21:22;4.90;;;4.00;;
15287;SDS011;7745;48.708;9.026;2022-09-03T07:23:51;5.17;;;3.60;;
15287;SDS011;7745;48.708;9.026;2022-09-03T07:26:20;4.50;;;3.73;;
15287;SDS011;7745;48.708;9.026;2022-09-03T07:28:49;5.33;;;4.27;;
15287;SDS011;7745;48.708;9.026;2022-09-03T07:31:16;4.00;;;3.70;;
15287;SDS011;7745;48.708;9.026;2022-09-03T07:33:49;3.77;;;3.40;;
15287;SDS011;7745;48.708;9.026;2022-09-03T07:36:16;4.23;;;3.83;;
15287;SDS011;7745;48.708;9.026;2022-09-03T07:38:43;8.73;;;4.00;;
15287;SDS011;7745;48.708;9.026;2022-09-03T07:41:11;4.23;;;3.57;;
15287;SDS011;7745;48.708;9.026;2022-09-03T07:43:40;5.33;;;3.70;;
15287;SDS011;7745;48.708;9.026;2022-09-03T07:46:11;3.97;;;3.67;;
15287;SDS011;7745;48.708;9.026;2022-09-03T07:48:38;4.73;;;3.73;;
15287;SDS011;7745;48.708;9.026;2022-09-03T07:51:05;4.13;;;3.73;;
15287;SDS011;7745;48.708;9.026;2022-09-03T07:53:33;4.33;;;3.53;;
15287;SDS011;7745;48.708;9.026;2022-09-03T07:56:01;3.50;;;3.20;;
15287;SDS011;7745;48.708;9.026;2022-09-03T07:58:29;3.83;;;3.50;;
15287;SDS011;7745;48.708;9.026;2022-09-03T08:00:58;3.07;;;2.87;;
15287;SDS011;7745;48.708;9.026;2022-09-03T08:03:28;10.60;;;3.30;;
15287;SDS011;7745;48.708;9.026;2022-09-03T08:05:58;3.83;;;3.17;;
15287;SDS011;7745;48.708;9.026;2022-09-03T08:08:26;4.70;;;3.30;;
15287;SDS011;7745;48.708;9.026;2022-09-03T08:10:53;4.03;;;2.93;;
15287;SDS011;7745;48.708;9.026;2022-09-03T08:13:22;4.63;;;3.00;;
15287;SDS011;7745;48.708;9.026;2022-09-03T08:15:52;4.47;;;3.40;;
15287;SDS011;7745;48.708;9.026;2022-09-03T08:18:21;3.50;;;3.20;;
15287;SDS011;7745;48.708;9.026;2022-09-03T08:20:48;5.93;;;3.23;;
15287;SDS011;7745;48.708;9.026;2022-09-03T08:23:14;3.20;;;2.70;;
15287;SDS011;7745;48.708;9.026;2022-09-03T08:25:41;3.33;;;2.87;;
15287;SDS011;7745;48.708;9.026;2022-09-03T08:28:18;3.00;;;2.80;;
15287;SDS011;7745;48.708;9.026;2022-09-03T08:30:45;3.08;;;2.88;;
15287;SDS011;7745;48.708;9.026;2022-09-03T08:33:12;3.25;;;2.67;;
15287;SDS011;7745;48.708;9.026;2022-09-03T08:35:40;3.10;;;2.80;;
15287;SDS011;7745;48.708;9.026;2022-09-03T08:38:07;3.47;;;2.90;;
15287;SDS011;7745;48.708;9.026;2022-09-03T08:40:35;4.10;;;2.60;;
15287;SDS011;7745;48.708;9.026;2022-09-03T08:43:05;3.83;;;2.85;;
15287;SDS011;7745;48.708;9.026;2022-09-03T08:45:37;2.70;;;2.45;;
15287;SDS011;7745;48.708;9.026;2022-09-03T08:48:05;2.70;;;2.50;;
15287;SDS011;7745;48.708;9.026;2022-09-03T08:50:36;4.00;;;3.10;;
15287;SDS011;7745;48.708;9.026;2022-09-03T08:53:10;3.70;;;3.03;;
15287;SDS011;7745;48.708;9.026;2022-09-03T08:55:42;4.20;;;2.92;;
15287;SDS011;7745;48.708;9.026;2022-09-03T08:58:15;5.07;;;3.03;;
15287;SDS011;7745;48.708;9.026;2022-09-03T09:00:47;4.13;;;2.63;;
15287;SDS011;7745;48.708;9.026;2022-09-03T09:03:30;5.00;;;2.87;;
15287;SDS011;7745;48.708;9.026;2022-09-03T09:06:05;3.70;;;2.80;;
15287;SDS011;7745;48.708;9.026;2022-09-03T09:08:40;5.97;;;2.80;;
15287;SDS011;7745;48.708;9.026;2022-09-03T09:11:15;3.10;;;2.90;;
15287;SDS011;7745;48.708;9.026;2022-09-03T09:13:51;3.37;;;2.80;;
15287;SDS011;7745;48.708;9.026;2022-09-03T09:16:26;3.60;;;3.30;;
15287;SDS011;7745;48.708;9.026;2022-09-03T09:19:04;5.50;;;2.97;;
15287;SDS011;7745;48.708;9.026;2022-09-03T09:21:45;4.03;;;3.23;;
15287;SDS011;7745;48.708;9.026;2022-09-03T09:24:20;3.55;;;2.53;;
15287;SDS011;7745;48.708;9.026;2022-09-03T09:26:50;3.80;;;2.97;;
15287;SDS011;7745;48.708;9.026;2022-09-03T09:29:23;2.65;;;2.45;;
15287;SDS011;7745;48.708;9.026;2022-09-03T09:31:52;3.30;;;2.53;;
15287;SDS011;7745;48.708;9.026;2022-09-03T09:34:19;6.40;;;3.03;;
15287;SDS011;7745;48.708;9.026;2022-09-03T09:36:46;3.08;;;2.75;;
15287;SDS011;7745;48.708;9.026;2022-09-03T09:39:16;5.65;;;2.90;;
15287;SDS011;7745;48.708;9.026;2022-09-03T09:41:53;3.70;;;2.75;;
15287;SDS011;7745;48.708;9.026;2022-09-03T09:44:23;2.95;;;2.40;;
15287;SDS011;7745;48.708;9.026;2022-09-03T09:47:00;2.93;;;2.73;;
15287;SDS011;7745;48.708;9.026;2022-09-03T09:49:32;3.63;;;2.60;;
15287;SDS011;7745;48.708;9.026;2022-09-03T09:52:01;4.63;;;2.70;;
15287;SDS011;7745;48.708;9.026;2022-09-03T09:54:29;3.72;;;2.90;;
15287;SDS011;7745;48.708;9.026;2022-09-03T09:57:01;2.88;;;2.53;;
15287;SDS011;7745;48.708;9.026;2022-09-03T09:59:30;4.65;;;2.40;;
15287;SDS011;7745;48.708;9.026;2022-09-03T10:02:03;2.42;;;2.22;;
15287;SDS011;7745;48.708;9.026;2022-09-03T10:04:35;2.78;;;2.42;;
15287;SDS011;7745;48.708;9.026;2022-09-03T10:07:04;4.25;;;2.45;;
15287;SDS011;7745;48.708;9.026;2022-09-03T10:09:43;18.35;;;6.97;;
15287;SDS011;7745;48.708;9.026;2022-09-03T10:12:13;4.45;;;2.70;;
15287;SDS011;7745;48.708;9.026;2022-09-03T10:14:51;3.63;;;3.05;;
15287;SDS011;7745;48.708;9.026;2022-09-03T10:17:23;2.95;;;2.45;;
15287;SDS011;7745;48.708;9.026;2022-09-03T10:19:56;3.60;;;3.00;;
15287;SDS011;7745;48.708;9.026;2022-09-03T10:22:49;3.85;;;2.90;;
15287;SDS011;7745;48.708;9.026;2022-09-03T10:25:20;5.50;;;2.80;;
15287;SDS011;7745;48.708;9.026;2022-09-03T10:27:51;3.00;;;2.70;;
15287;SDS011;7745;48.708;9.026;2022-09-03T10:30:18;6.88;;;3.30;;
15287;SDS011;7745;48.708;9.026;2022-09-03T10:32:51;7.35;;;3.28;;
15287;SDS011;7745;48.708;9.026;2022-09-03T10:35:30;3.90;;;3.10;;
15287;SDS011;7745;48.708;9.026;2022-09-03T10:38:02;6.38;;;3.42;;
15287;SDS011;7745;48.708;9.026;2022-09-03T10:40:35;3.50;;;3.20;;
15287;SDS011;7745;48.708;9.026;2022-09-03T10:43:15;3.78;;;2.85;;
15287;SDS011;7745;48.708;9.026;2022-09-03T10:45:58;3.55;;;2.90;;
15287;SDS011;7745;48.708;9.026;2022-09-03T10:51:22;5.78;;;3.30;;
15287;SDS011;7745;48.708;9.026;2022-09-03T10:54:01;3.28;;;2.83;;
15287;SDS011;7745;48.708;9.026;2022-09-03T10:56:40;4.60;;;2.65;;
15287;SDS011;7745;48.708;9.026;2022-09-03T10:59:23;2.97;;;2.70;;
15287;SDS011;7745;48.708;9.026;2022-09-03T11:01:59;6.28;;;3.10;;
15287;SDS011;7745;48.708;9.026;2022-09-03T11:04:45;4.20;;;2.90;;
15287;SDS011;7745;48.708;9.026;2022-09-03T11:07:19;3.97;;;3.05;;
15287;SDS011;7745;48.708;9.026;2022-09-03T11:09:49;3.47;;;2.97;;
15287;SDS011;7745;48.708;9.026;2022-09-03T11:12:23;5.13;;;2.88;;
15287;SDS011;7745;48.708;9.026;2022-09-03T11:14:58;3.70;;;3.30;;
15287;SDS011;7745;48.708;9.026;2022-09-03T11:17:31;6.57;;;5.85;;
15287;SDS011;7745;48.708;9.026;2022-09-03T11:20:05;5.55;;;3.05;;
15287;SDS011;7745;48.708;9.026;2022-09-03T11:22:39;7.13;;;3.35;;
15287;SDS011;7745;48.708;9.026;2022-09-03T11:25:08;3.83;;;3.53;;
15287;SDS011;7745;48.708;9.026;2022-09-03T11:27:44;3.60;;;3.05;;
15287;SDS011;7745;48.708;9.026;2022-09-03T11:30:27;3.42;;;3.13;;
15287;SDS011;7745;48.708;9.026;2022-09-03T11:33:04;4.10;;;3.45;;
15287;SDS011;7745;48.708;9.026;2022-09-03T11:35:37;4.18;;;3.17;;
15287;SDS011;7745;48.708;9.026;2022-09-03T11:38:07;4.75;;;3.40;;
15287;SDS011;7745;48.708;9.026;2022-09-03T11:40:58;5.00;;;3.15;;
15287;SDS011;7745;48.708;9.026;2022-09-03T11:43:28;3.63;;;2.80;;
15287;SDS011;7745;48.708;9.026;2022-09-03T11:46:02;4.22;;;3.30;;
15287;SDS011;7745;48.708;9.026;2022-09-03T11:48:36;3.90;;;3.50;;
15287;SDS011;7745;48.708;9.026;2022-09-03T11:51:17;4.05;;;3.35;;
15287;SDS011;7745;48.708;9.026;2022-09-03T11:53:53;3.83;;;3.53;;
15287;SDS011;7745;48.708;9.026;2022-09-03T11:56:21;4.70;;;3.67;;
15287;SDS011;7745;48.708;9.026;2022-09-03T11:58:58;5.53;;;3.75;;
15287;SDS011;7745;48.708;9.026;2022-09-03T12:01:32;8.20;;;4.40;;
15287;SDS011;7745;48.708;9.026;2022-09-03T12:04:09;7.95;;;4.40;;
15287;SDS011;7745;48.708;9.026;2022-09-03T12:09:36;3.97;;;3.20;;
15287;SDS011;7745;48.708;9.026;2022-09-03T12:12:25;5.37;;;3.23;;
15287;SDS011;7745;48.708;9.026;2022-09-03T12:15:20;4.37;;;3.17;;
15287;SDS011;7745;48.708;9.026;2022-09-03T12:18:03;4.97;;;2.83;;
15287;SDS011;7745;48.708;9.026;2022-09-03T12:20:46;6.20;;;2.70;;
15287;SDS011;7745;48.708;9.026;2022-09-03T12:23:25;8.07;;;2.57;;
15287;SDS011;7745;48.708;9.026;2022-09-03T12:25:54;4.70;;;2.13;;
15287;SDS011;7745;48.708;9.026;2022-09-03T12:28:23;3.93;;;2.03;;
15287;SDS011;7745;48.708;9.026;2022-09-03T12:30:51;4.57;;;2.10;;
15287;SDS011;7745;48.708;9.026;2022-09-03T12:33:20;5.27;;;1.83;;
15287;SDS011;7745;48.708;9.026;2022-09-03T12:35:54;2.70;;;1.60;;
15287;SDS011;7745;48.708;9.026;2022-09-03T12:38:22;4.83;;;1.77;;
15287;SDS011;7745;48.708;9.026;2022-09-03T12:40:50;3.23;;;1.60;;
15287;SDS011;7745;48.708;9.026;2022-09-03T12:43:17;2.93;;;2.00;;
15287;SDS011;7745;48.708;9.026;2022-09-03T12:45:45;4.10;;;1.77;;
15287;SDS011;7745;48.708;9.026;2022-09-03T12:48:15;2.37;;;1.60;;
15287;SDS011;7745;48.708;9.026;2022-09-03T12:50:45;3.33;;;1.90;;
15287;SDS011;7745;48.708;9.026;2022-09-03T12:53:15;2.87;;;1.70;;
15287;SDS011;7745;48.708;9.026;2022-09-03T12:55:47;3.67;;;1.80;;
15287;SDS011;7745;48.708;9.026;2022-09-03T12:58:18;2.97;;;1.70;;
15287;SDS011;7745;48.708;9.026;2022-09-03T13:00:49;3.20;;;1.80;;
15287;SDS011;7745;48.708;9.026;2022-09-03T13:03:21;4.17;;;1.80;;
15287;SDS011;7745;48.708;9.026;2022-09-03T13:05:54;2.57;;;1.67;;
15287;SDS011;7745;48.708;9.026;2022-09-03T13:08:25;3.40;;;1.70;;
15287;SDS011;7745;48.708;9.026;2022-09-03T13:10:58;4.20;;;1.53;;
15287;SDS011;7745;48.708;9.026;2022-09-03T13:13:30;3.70;;;1.47;;
15287;SDS011;7745;48.708;9.026;2022-09-03T13:19:05;2.80;;;1.63;;
15287;SDS011;7745;48.708;9.026;2022-09-03T13:21:40;2.97;;;1.57;;
15287;SDS011;7745;48.708;9.026;2022-09-03T13:24:25;11.40;;;2.70;;
15287;SDS011;7745;48.708;9.026;2022-09-03T13:27:06;5.27;;;1.70;;
15287;SDS011;7745;48.708;9.026;2022-09-03T13:29:47;5.30;;;1.40;;
15287;SDS011;7745;48.708;9.026;2022-09-03T13:32:28;4.07;;;1.83;;
15287;SDS011;7745;48.708;9.026;2022-09-03T13:35:04;3.27;;;1.80;;
15287;SDS011;7745;48.708;9.026;2022-09-03T13:37:36;5.67;;;1.70;;
15287;SDS011;7745;48.708;9.026;2022-09-03T13:40:11;3.67;;;1.47;;
15287;SDS011;7745;48.708;9.026;2022-09-03T13:42:43;4.83;;;1.40;;
15287;SDS011;7745;48.708;9.026;2022-09-03T13:45:20;3.15;;;1.70;;
15287;SDS011;7745;48.708;9.026;2022-09-03T13:47:55;3.73;;;1.73;;
15287;SDS011;7745;48.708;9.026;2022-09-03T13:50:46;3.43;;;1.23;;
15287;SDS011;7745;48.708;9.026;2022-09-03T13:53:22;2.67;;;1.40;;
15287;SDS011;7745;48.708;9.026;2022-09-03T13:55:59;2.77;;;1.53;;
15287;SDS011;7745;48.708;9.026;2022-09-03T13:58:33;2.53;;;1.63;;
15287;SDS011;7745;48.708;9.026;2022-09-03T14:01:09;1.43;;;1.10;;
15287;SDS011;7745;48.708;9.026;2022-09-03T14:03:45;1.97;;;1.13;;
15287;SDS011;7745;48.708;9.026;2022-09-03T14:06:18;1.85;;;1.10;;
15287;SDS011;7745;48.708;9.026;2022-09-03T14:09:00;5.67;;;1.60;;
15287;SDS011;7745;48.708;9.026;2022-09-03T14:11:39;3.50;;;1.47;;
15287;SDS011;7745;48.708;9.026;2022-09-03T14:14:16;7.45;;;1.55;;
15287;SDS011;7745;48.708;9.026;2022-09-03T14:16:55;5.67;;;1.93;;
15287;SDS011;7745;48.708;9.026;2022-09-03T14:19:31;2.53;;;1.90;;
15287;SDS011;7745;48.708;9.026;2022-09-03T14:22:04;2.83;;;1.40;;
15287;SDS011;7745;48.708;9.026;2022-09-03T14:24:39;2.90;;;1.50;;
15287;SDS011;7745;48.708;9.026;2022-09-03T14:27:12;3.53;;;1.97;;
15287;SDS011;7745;48.708;9.026;2022-09-03T14:29:49;3.07;;;1.50;;
15287;SDS011;7745;48.708;9.026;2022-09-03T14:32:23;2.60;;;1.33;;
15287;SDS011;7745;48.708;9.026;2022-09-03T14:34:58;2.93;;;1.53;;
15287;SDS011;7745;48.708;9.026;2022-09-03T14:37:55;2.17;;;1.50;;
15287;SDS011;7745;48.708;9.026;2022-09-03T14:40:55;1.70;;;1.30;;
15287;SDS011;7745;48.708;9.026;2022-09-03T14:43:42;2.53;;;1.50;;
15287;SDS011;7745;48.708;9.026;2022-09-03T14:46:33;2.53;;;1.37;;
15287;SDS011;7745;48.708;9.026;2022-09-03T14:49:15;1.60;;;1.50;;
15287;SDS011;7745;48.708;9.026;2022-09-03T14:51:58;2.60;;;1.40;;
15287;SDS011;7745;48.708;9.026;2022-09-03T14:57:47;2.33;;;1.50;;
15287;SDS011;7745;48.708;9.026;2022-09-03T15:00:27;2.77;;;1.40;;
15287;SDS011;7745;48.708;9.026;2022-09-03T15:03:02;2.90;;;1.60;;
15287;SDS011;7745;48.708;9.026;2022-09-03T15:06:01;1.70;;;1.40;;
15287;SDS011;7745;48.708;9.026;2022-09-03T15:08:38;2.72;;;1.67;;
15287;SDS011;7745;48.708;9.026;2022-09-03T15:11:18;6.55;;;1.92;;
15287;SDS011;7745;48.708;9.026;2022-09-03T15:13:52;2.38;;;1.60;;
15287;SDS011;7745;48.708;9.026;2022-09-03T15:16:38;4.60;;;1.60;;
15287;SDS011;7745;48.708;9.026;2022-09-03T15:19:15;2.42;;;1.30;;
15287;SDS011;7745;48.708;9.026;2022-09-03T15:22:01;2.28;;;1.70;;
15287;SDS011;7745;48.708;9.026;2022-09-03T15:24:37;2.55;;;1.42;;
15287;SDS011;7745;48.708;9.026;2022-09-03T15:27:13;4.95;;;1.73;;
15287;SDS011;7745;48.708;9.026;2022-09-03T15:29:59;1.92;;;1.63;;
15287;SDS011;7745;48.708;9.026;2022-09-03T15:32:36;1.95;;;1.33;;
15287;SDS011;7745;48.708;9.026;2022-09-03T15:35:15;3.07;;;1.70;;
15287;SDS011;7745;48.708;9.026;2022-09-03T15:37:57;1.53;;;1.43;;
15287;SDS011;7745;48.708;9.026;2022-09-03T15:40:28;2.10;;;1.60;;
15287;SDS011;7745;48.708;9.026;2022-09-03T15:42:59;1.60;;;1.50;;
15287;SDS011;7745;48.708;9.026;2022-09-03T15:45:39;7.23;;;2.03;;
15287;SDS011;7745;48.708;9.026;2022-09-03T15:48:22;3.23;;;1.50;;